sensor_id;sensor_type;location;lat;lon;timestamp;pressure;altitude;pressure_sealevel;temperature;humidity
30618;BME280;17384;51.214;9.202;2023-02-12T00:01:50;100718.00;;;4.70;86.00
30618;BME280;17384;51.214;9.202;2023-02-12T00:04:16;100715.78;;;4.75;85.63
30618;BME280;17384;51.214;9.202;2023-02-12T00:06:41;100710.66;;;4.72;85.22
30618;BME280;17384;51.214;9.202;2023-02-12T00:09:07;100706.53;;;4.68;85.51
30618;BME280;17384;51.214;9.202;2023-02-12T00:11:32;100710.31;;;4.65;85.71
30618;BME280;17384;51.214;9.202;2023-02-12T00:13:58;100708.97;;;4.71;85.85
30618;BME280;17384;51.214;9.202;2023-02-12T00:16:27;100700.63;;;4.74;85.77
30618;BME280;17384;51.214;9.202;2023-02-12T00:18:55;100704.66;;;4.59;85.71
30618;BME280;17384;51.214;9.202;2023-02-12T00:21:21;100706.47;;;4.58;85.90
30618;BME280;17384;51.214;9.202;2023-02-12T00:23:48;100708.66;;;4.64;85.45
30618;BME280;17384;51.214;9.202;2023-02-12T00:26:16;100706.81;;;4.65;84.97
30618;BME280;17384;51.214;9.202;2023-02-12T00:28:42;100698.28;;;4.60;84.99
30618;BME280;17384;51.214;9.202;2023-02-12T00:31:14;100712.44;;;4.62;84.78
30618;BME280;17384;51.214;9.202;2023-02-12T00:33:40;100717.09;;;4.60;84.95
30618;BME280;17384;51.214;9.202;2023-02-12T00:36:07;100715.41;;;4.59;85.02
30618;BME280;17384;51.214;9.202;2023-02-12T00:38:34;100717.75;;;4.73;85.31
30618;BME280;17384;51.214;9.202;2023-02-12T00:40:59;100719.91;;;4.79;85.29
30618;BME280;17384;51.214;9.202;2023-02-12T00:43:25;100717.41;;;4.66;85.81
30618;BME280;17384;51.214;9.202;2023-02-12T00:45:50;100719.78;;;4.60;86.44
30618;BME280;17384;51.214;9.202;2023-02-12T00:48:16;100716.28;;;4.48;86.79
30618;BME280;17384;51.214;9.202;2023-02-12T00:50:47;100722.19;;;4.42;87.53
30618;BME280;17384;51.214;9.202;2023-02-12T00:53:13;100717.97;;;4.60;87.74
30618;BME280;17384;51.214;9.202;2023-02-12T00:55:39;100719.53;;;4.63;87.44
30618;BME280;17384;51.214;9.202;2023-02-12T00:58:05;100722.22;;;4.63;87.65
30618;BME280;17384;51.214;9.202;2023-02-12T01:00:31;100724.63;;;4.66;87.38
30618;BME280;17384;51.214;9.202;2023-02-12T01:02:56;100707.63;;;4.65;87.30
30618;BME280;17384;51.214;9.202;2023-02-12T01:05:22;100712.25;;;4.54;87.57
30618;BME280;17384;51.214;9.202;2023-02-12T01:07:52;100715.69;;;4.45;88.20
30618;BME280;17384;51.214;9.202;2023-02-12T01:10:18;100715.81;;;4.43;88.34
30618;BME280;17384;51.214;9.202;2023-02-12T01:12:45;100716.38;;;4.37;88.34
30618;BME280;17384;51.214;9.202;2023-02-12T01:15:11;100709.59;;;4.42;88.95
30618;BME280;17384;51.214;9.202;2023-02-12T01:17:37;100712.03;;;4.46;88.91
30618;BME280;17384;51.214;9.202;2023-02-12T01:20:04;100716.94;;;4.40;88.84
30618;BME280;17384;51.214;9.202;2023-02-12T01:22:33;100712.16;;;4.44;88.29
30618;BME280;17384;51.214;9.202;2023-02-12T01:24:58;100710.84;;;4.38;87.44
30618;BME280;17384;51.214;9.202;2023-02-12T01:27:24;100724.28;;;4.38;86.90
30618;BME280;17384;51.214;9.202;2023-02-12T01:29:49;100712.59;;;4.28;87.03
30618;BME280;17384;51.214;9.202;2023-02-12T01:32:15;100712.00;;;4.25;87.11
30618;BME280;17384;51.214;9.202;2023-02-12T01:34:40;100712.84;;;4.25;86.99
30618;BME280;17384;51.214;9.202;2023-02-12T01:37:06;100716.53;;;4.24;87.04
30618;BME280;17384;51.214;9.202;2023-02-12T01:39:31;100718.13;;;4.16;87.69
30618;BME280;17384;51.214;9.202;2023-02-12T01:41:57;100710.19;;;4.46;87.08
30618;BME280;17384;51.214;9.202;2023-02-12T01:44:28;100710.75;;;4.61;86.92
30618;BME280;17384;51.214;9.202;2023-02-12T01:46:58;100719.06;;;4.58;87.16
30618;BME280;17384;51.214;9.202;2023-02-12T01:49:43;100697.94;;;4.53;87.74
30618;BME280;17384;51.214;9.202;2023-02-12T01:52:14;100710.88;;;4.59;88.13
30618;BME280;17384;51.214;9.202;2023-02-12T01:54:42;100704.81;;;4.46;87.98
30618;BME280;17384;51.214;9.202;2023-02-12T01:57:08;100715.94;;;4.41;88.40
30618;BME280;17384;51.214;9.202;2023-02-12T01:59:36;100709.00;;;4.39;88.86
30618;BME280;17384;51.214;9.202;2023-02-12T02:02:03;100705.47;;;4.38;89.13
30618;BME280;17384;51.214;9.202;2023-02-12T02:04:32;100707.59;;;4.35;88.94
30618;BME280;17384;51.214;9.202;2023-02-12T02:07:03;100711.31;;;4.43;88.75
30618;BME280;17384;51.214;9.202;2023-02-12T02:09:32;100702.66;;;4.40;88.15
30618;BME280;17384;51.214;9.202;2023-02-12T02:11:58;100704.91;;;4.56;87.84
30618;BME280;17384;51.214;9.202;2023-02-12T02:14:43;100700.25;;;4.58;87.77
30618;BME280;17384;51.214;9.202;2023-02-12T02:17:30;100708.69;;;4.53;88.07
30618;BME280;17384;51.214;9.202;2023-02-12T02:28:42;100694.47;;;4.41;89.44
30618;BME280;17384;51.214;9.202;2023-02-12T02:31:43;100695.06;;;4.45;89.46
30618;BME280;17384;51.214;9.202;2023-02-12T02:42:10;100685.03;;;4.47;89.53
30618;BME280;17384;51.214;9.202;2023-02-12T02:45:00;100690.88;;;4.31;89.21
30618;BME280;17384;51.214;9.202;2023-02-12T02:47:51;100671.13;;;4.21;88.92
30618;BME280;17384;51.214;9.202;2023-02-12T02:50:21;100679.00;;;4.34;89.24
30618;BME280;17384;51.214;9.202;2023-02-12T02:52:52;100688.66;;;4.36;88.80
30618;BME280;17384;51.214;9.202;2023-02-12T02:55:22;100675.66;;;4.41;88.48
30618;BME280;17384;51.214;9.202;2023-02-12T02:58:03;100684.97;;;4.37;88.32
30618;BME280;17384;51.214;9.202;2023-02-12T03:00:47;100678.16;;;4.33;88.46
30618;BME280;17384;51.214;9.202;2023-02-12T03:05:49;100671.97;;;4.42;88.78
30618;BME280;17384;51.214;9.202;2023-02-12T03:08:23;100685.88;;;4.48;88.61
30618;BME280;17384;51.214;9.202;2023-02-12T03:10:58;100680.75;;;4.45;88.69
30618;BME280;17384;51.214;9.202;2023-02-12T03:13:32;100674.88;;;4.51;88.46
30618;BME280;17384;51.214;9.202;2023-02-12T03:16:20;100679.38;;;4.29;88.04
30618;BME280;17384;51.214;9.202;2023-02-12T03:19:16;100679.84;;;4.34;88.53
30618;BME280;17384;51.214;9.202;2023-02-12T03:24:32;100684.38;;;4.34;88.33
30618;BME280;17384;51.214;9.202;2023-02-12T03:29:28;100700.38;;;4.35;88.17
30618;BME280;17384;51.214;9.202;2023-02-12T03:32:24;100697.25;;;4.19;88.07
30618;BME280;17384;51.214;9.202;2023-02-12T03:38:26;100689.66;;;4.24;88.23
30618;BME280;17384;51.214;9.202;2023-02-12T03:40:51;100695.38;;;4.31;88.43
30618;BME280;17384;51.214;9.202;2023-02-12T03:43:24;100700.75;;;4.31;88.13
30618;BME280;17384;51.214;9.202;2023-02-12T03:45:58;100700.44;;;4.13;88.49
30618;BME280;17384;51.214;9.202;2023-02-12T03:48:41;100694.56;;;4.19;88.34
30618;BME280;17384;51.214;9.202;2023-02-12T03:53:50;100698.78;;;4.33;88.17
30618;BME280;17384;51.214;9.202;2023-02-12T03:56:24;100701.59;;;4.31;88.12
30618;BME280;17384;51.214;9.202;2023-02-12T03:58:52;100703.06;;;4.35;88.35
30618;BME280;17384;51.214;9.202;2023-02-12T04:01:18;100712.53;;;4.39;88.70
30618;BME280;17384;51.214;9.202;2023-02-12T04:03:43;100713.28;;;4.41;88.41
30618;BME280;17384;51.214;9.202;2023-02-12T04:06:38;100715.69;;;4.45;88.20
30618;BME280;17384;51.214;9.202;2023-02-12T04:09:06;100712.28;;;4.42;87.99
30618;BME280;17384;51.214;9.202;2023-02-12T04:14:35;100719.63;;;4.40;87.46
30618;BME280;17384;51.214;9.202;2023-02-12T04:19:53;100731.63;;;4.36;87.66
30618;BME280;17384;51.214;9.202;2023-02-12T04:22:45;100720.88;;;4.36;87.70
30618;BME280;17384;51.214;9.202;2023-02-12T04:25:22;100740.38;;;4.38;87.74
30618;BME280;17384;51.214;9.202;2023-02-12T04:33:01;100738.00;;;4.35;88.22
30618;BME280;17384;51.214;9.202;2023-02-12T04:35:31;100733.59;;;4.34;88.20
30618;BME280;17384;51.214;9.202;2023-02-12T04:40:43;100740.94;;;4.32;88.00
30618;BME280;17384;51.214;9.202;2023-02-12T04:43:09;100747.31;;;4.20;88.27
30618;BME280;17384;51.214;9.202;2023-02-12T04:45:35;100746.22;;;4.23;88.65
30618;BME280;17384;51.214;9.202;2023-02-12T04:48:03;100756.56;;;4.27;88.63
30618;BME280;17384;51.214;9.202;2023-02-12T04:50:40;100753.78;;;4.18;88.92
30618;BME280;17384;51.214;9.202;2023-02-12T04:53:07;100760.38;;;4.25;89.11
30618;BME280;17384;51.214;9.202;2023-02-12T04:55:33;100747.66;;;4.27;88.68
30618;BME280;17384;51.214;9.202;2023-02-12T04:57:58;100747.53;;;4.28;88.55
30618;BME280;17384;51.214;9.202;2023-02-12T05:00:24;100759.38;;;4.26;88.63
30618;BME280;17384;51.214;9.202;2023-02-12T05:02:49;100754.84;;;4.37;88.22
30618;BME280;17384;51.214;9.202;2023-02-12T05:05:14;100743.56;;;4.43;87.97
30618;BME280;17384;51.214;9.202;2023-02-12T05:07:40;100759.94;;;4.40;87.73
30618;BME280;17384;51.214;9.202;2023-02-12T05:10:06;100757.06;;;4.32;88.17
30618;BME280;17384;51.214;9.202;2023-02-12T05:12:31;100763.91;;;4.25;88.57
30618;BME280;17384;51.214;9.202;2023-02-12T05:14:57;100755.00;;;4.14;88.77
30618;BME280;17384;51.214;9.202;2023-02-12T05:17:23;100741.59;;;4.14;88.82
30618;BME280;17384;51.214;9.202;2023-02-12T05:19:48;100751.59;;;4.12;89.45
30618;BME280;17384;51.214;9.202;2023-02-12T05:22:14;100748.78;;;4.13;89.74
30618;BME280;17384;51.214;9.202;2023-02-12T05:24:39;100750.38;;;4.16;89.30
30618;BME280;17384;51.214;9.202;2023-02-12T05:27:05;100753.09;;;4.04;89.30
30618;BME280;17384;51.214;9.202;2023-02-12T05:29:32;100752.44;;;4.12;89.41
30618;BME280;17384;51.214;9.202;2023-02-12T05:31:57;100754.75;;;4.17;89.38
30618;BME280;17384;51.214;9.202;2023-02-12T05:34:23;100745.59;;;4.19;89.62
30618;BME280;17384;51.214;9.202;2023-02-12T05:36:48;100739.03;;;4.12;89.50
30618;BME280;17384;51.214;9.202;2023-02-12T05:39:13;100755.75;;;4.16;89.58
30618;BME280;17384;51.214;9.202;2023-02-12T05:41:39;100746.34;;;4.21;89.51
30618;BME280;17384;51.214;9.202;2023-02-12T05:44:04;100747.31;;;4.20;89.18
30618;BME280;17384;51.214;9.202;2023-02-12T05:46:31;100756.78;;;4.03;89.71
30618;BME280;17384;51.214;9.202;2023-02-12T05:48:56;100748.59;;;4.05;89.64
30618;BME280;17384;51.214;9.202;2023-02-12T05:51:23;100755.75;;;4.16;89.88
30618;BME280;17384;51.214;9.202;2023-02-12T05:53:50;100752.69;;;4.20;89.73
30618;BME280;17384;51.214;9.202;2023-02-12T05:56:18;100748.75;;;4.24;89.46
30618;BME280;17384;51.214;9.202;2023-02-12T05:58:47;100758.66;;;4.24;89.54
30618;BME280;17384;51.214;9.202;2023-02-12T06:01:19;100753.06;;;4.16;89.67
30618;BME280;17384;51.214;9.202;2023-02-12T06:03:45;100759.41;;;4.15;89.60
30618;BME280;17384;51.214;9.202;2023-02-12T06:06:10;100758.31;;;4.17;89.90
30618;BME280;17384;51.214;9.202;2023-02-12T06:08:36;100749.22;;;3.97;90.14
30618;BME280;17384;51.214;9.202;2023-02-12T06:11:06;100758.38;;;3.95;90.28
30618;BME280;17384;51.214;9.202;2023-02-12T06:13:32;100760.31;;;4.04;90.40
30618;BME280;17384;51.214;9.202;2023-02-12T06:15:58;100758.97;;;4.10;90.19
30618;BME280;17384;51.214;9.202;2023-02-12T06:18:24;100758.47;;;4.04;90.38
30618;BME280;17384;51.214;9.202;2023-02-12T06:20:50;100753.97;;;4.05;90.28
30618;BME280;17384;51.214;9.202;2023-02-12T06:23:15;100761.28;;;4.03;90.55
30618;BME280;17384;51.214;9.202;2023-02-12T06:25:41;100770.44;;;4.00;90.47
30618;BME280;17384;51.214;9.202;2023-02-12T06:28:06;100767.25;;;4.06;90.39
30618;BME280;17384;51.214;9.202;2023-02-12T06:30:35;100758.13;;;3.98;90.12
30618;BME280;17384;51.214;9.202;2023-02-12T06:33:00;100772.81;;;4.26;88.89
30618;BME280;17384;51.214;9.202;2023-02-12T06:35:26;100780.50;;;4.30;88.77
30618;BME280;17384;51.214;9.202;2023-02-12T06:37:52;100790.28;;;4.31;89.03
30618;BME280;17384;51.214;9.202;2023-02-12T06:40:17;100785.75;;;4.32;89.12
30618;BME280;17384;51.214;9.202;2023-02-12T06:42:43;100787.09;;;4.37;89.33
30618;BME280;17384;51.214;9.202;2023-02-12T06:45:08;100788.50;;;4.41;89.43
30618;BME280;17384;51.214;9.202;2023-02-12T06:47:34;100793.16;;;4.39;89.60
30618;BME280;17384;51.214;9.202;2023-02-12T06:49:59;100801.75;;;4.33;90.11
30618;BME280;17384;51.214;9.202;2023-02-12T06:52:26;100797.34;;;4.32;90.98
30618;BME280;17384;51.214;9.202;2023-02-12T06:54:51;100799.50;;;4.38;90.80
30618;BME280;17384;51.214;9.202;2023-02-12T06:57:17;100805.66;;;4.29;90.87
30618;BME280;17384;51.214;9.202;2023-02-12T06:59:42;100805.06;;;4.26;91.32
30618;BME280;17384;51.214;9.202;2023-02-12T07:02:10;100813.84;;;4.28;91.54
30618;BME280;17384;51.214;9.202;2023-02-12T07:04:37;100818.38;;;4.27;91.53
30618;BME280;17384;51.214;9.202;2023-02-12T07:07:03;100817.44;;;4.06;91.47
30618;BME280;17384;51.214;9.202;2023-02-12T07:09:29;100805.97;;;4.04;91.56
30618;BME280;17384;51.214;9.202;2023-02-12T07:11:57;100814.88;;;4.04;91.85
30618;BME280;17384;51.214;9.202;2023-02-12T07:14:22;100816.41;;;4.18;92.06
30618;BME280;17384;51.214;9.202;2023-02-12T07:16:48;100831.19;;;4.24;91.59
30618;BME280;17384;51.214;9.202;2023-02-12T07:19:13;100827.41;;;4.26;91.04
30618;BME280;17384;51.214;9.202;2023-02-12T07:21:40;100822.75;;;4.28;90.72
30618;BME280;17384;51.214;9.202;2023-02-12T07:24:06;100819.72;;;4.22;90.67
30618;BME280;17384;51.214;9.202;2023-02-12T07:26:33;100837.53;;;4.23;90.74
30618;BME280;17384;51.214;9.202;2023-02-12T07:28:58;100837.91;;;4.29;90.92
30618;BME280;17384;51.214;9.202;2023-02-12T07:31:24;100826.19;;;4.30;90.88
30618;BME280;17384;51.214;9.202;2023-02-12T07:33:54;100835.09;;;4.31;90.68
30618;BME280;17384;51.214;9.202;2023-02-12T07:36:21;100845.72;;;4.32;90.91
30618;BME280;17384;51.214;9.202;2023-02-12T07:38:46;100835.41;;;4.49;90.51
30618;BME280;17384;51.214;9.202;2023-02-12T07:41:24;100838.84;;;4.39;90.59
30618;BME280;17384;51.214;9.202;2023-02-12T07:43:55;100857.53;;;4.41;90.76
30618;BME280;17384;51.214;9.202;2023-02-12T07:46:26;100846.53;;;4.44;91.29
30618;BME280;17384;51.214;9.202;2023-02-12T07:48:58;100850.53;;;4.50;91.37
30618;BME280;17384;51.214;9.202;2023-02-12T07:51:25;100855.06;;;4.49;91.10
30618;BME280;17384;51.214;9.202;2023-02-12T07:53:51;100859.09;;;4.55;91.36
30618;BME280;17384;51.214;9.202;2023-02-12T07:56:20;100844.91;;;4.53;91.00
30618;BME280;17384;51.214;9.202;2023-02-12T07:58:47;100855.28;;;4.57;91.03
30618;BME280;17384;51.214;9.202;2023-02-12T08:01:26;100849.56;;;4.51;90.74
30618;BME280;17384;51.214;9.202;2023-02-12T08:03:53;100863.50;;;4.56;91.17
30618;BME280;17384;51.214;9.202;2023-02-12T08:06:27;100858.78;;;4.69;91.19
30618;BME280;17384;51.214;9.202;2023-02-12T08:08:54;100865.16;;;4.68;91.22
30618;BME280;17384;51.214;9.202;2023-02-12T08:11:20;100860.97;;;4.75;91.40
30618;BME280;17384;51.214;9.202;2023-02-12T08:13:46;100863.88;;;4.83;91.15
30618;BME280;17384;51.214;9.202;2023-02-12T08:16:15;100865.66;;;4.94;91.27
30618;BME280;17384;51.214;9.202;2023-02-12T08:18:41;100866.84;;;5.01;91.36
30618;BME280;17384;51.214;9.202;2023-02-12T08:21:18;100853.59;;;4.88;91.10
30618;BME280;17384;51.214;9.202;2023-02-12T08:23:44;100869.59;;;4.90;91.21
30618;BME280;17384;51.214;9.202;2023-02-12T08:26:12;100872.09;;;5.02;90.93
30618;BME280;17384;51.214;9.202;2023-02-12T08:28:41;100871.38;;;5.00;90.51
30618;BME280;17384;51.214;9.202;2023-02-12T08:31:14;100874.53;;;5.05;90.28
30618;BME280;17384;51.214;9.202;2023-02-12T08:33:40;100859.59;;;5.13;90.20
30618;BME280;17384;51.214;9.202;2023-02-12T08:36:10;100862.53;;;5.09;90.24
30618;BME280;17384;51.214;9.202;2023-02-12T08:38:37;100867.91;;;5.09;90.50
30618;BME280;17384;51.214;9.202;2023-02-12T08:41:15;100863.59;;;5.18;90.59
30618;BME280;17384;51.214;9.202;2023-02-12T08:43:41;100874.09;;;5.21;90.84
30618;BME280;17384;51.214;9.202;2023-02-12T08:46:09;100874.69;;;5.25;90.70
30618;BME280;17384;51.214;9.202;2023-02-12T08:48:35;100869.03;;;5.28;90.80
30618;BME280;17384;51.214;9.202;2023-02-12T08:51:10;100871.94;;;5.36;90.74
30618;BME280;17384;51.214;9.202;2023-02-12T08:53:37;100876.06;;;5.40;90.62
30618;BME280;17384;51.214;9.202;2023-02-12T08:56:05;100874.88;;;5.54;90.58
30618;BME280;17384;51.214;9.202;2023-02-12T08:58:31;100880.78;;;5.68;90.59
30618;BME280;17384;51.214;9.202;2023-02-12T09:00:57;100883.84;;;5.85;90.14
30618;BME280;17384;51.214;9.202;2023-02-12T09:03:22;100879.00;;;5.99;89.72
30618;BME280;17384;51.214;9.202;2023-02-12T09:05:48;100879.91;;;6.19;89.24
30618;BME280;17384;51.214;9.202;2023-02-12T09:08:14;100876.97;;;6.32;88.90
30618;BME280;17384;51.214;9.202;2023-02-12T09:10:40;100874.31;;;6.41;88.41
30618;BME280;17384;51.214;9.202;2023-02-12T09:13:11;100876.44;;;6.48;88.12
30618;BME280;17384;51.214;9.202;2023-02-12T09:15:37;100891.22;;;6.53;87.79
30618;BME280;17384;51.214;9.202;2023-02-12T09:18:03;100890.09;;;6.56;87.55
30618;BME280;17384;51.214;9.202;2023-02-12T09:20:30;100889.09;;;6.57;87.64
30618;BME280;17384;51.214;9.202;2023-02-12T09:22:57;100881.84;;;6.57;87.42
30618;BME280;17384;51.214;9.202;2023-02-12T09:25:23;100894.91;;;6.62;87.36
30618;BME280;17384;51.214;9.202;2023-02-12T09:27:49;100885.00;;;6.72;87.50
30618;BME280;17384;51.214;9.202;2023-02-12T09:30:14;100884.47;;;6.78;87.54
30618;BME280;17384;51.214;9.202;2023-02-12T09:32:40;100887.28;;;6.86;87.35
30618;BME280;17384;51.214;9.202;2023-02-12T09:35:05;100888.16;;;6.96;87.05
30618;BME280;17384;51.214;9.202;2023-02-12T09:37:31;100885.47;;;7.06;86.92
30618;BME280;17384;51.214;9.202;2023-02-12T09:39:56;100884.91;;;7.02;86.15
30618;BME280;17384;51.214;9.202;2023-02-12T09:45:21;100895.53;;;6.94;86.73
30618;BME280;17384;51.214;9.202;2023-02-12T09:50:30;100889.59;;;7.00;85.66
30618;BME280;17384;51.214;9.202;2023-02-12T09:52:58;100892.72;;;7.05;85.35
30618;BME280;17384;51.214;9.202;2023-02-12T09:55:30;100905.22;;;7.26;85.07
30618;BME280;17384;51.214;9.202;2023-02-12T09:57:56;100893.84;;;7.32;84.31
30618;BME280;17384;51.214;9.202;2023-02-12T10:00:29;100906.47;;;7.51;83.84
30618;BME280;17384;51.214;9.202;2023-02-12T10:03:00;100909.72;;;7.54;83.16
30618;BME280;17384;51.214;9.202;2023-02-12T10:06:06;100903.47;;;7.54;82.54
30618;BME280;17384;51.214;9.202;2023-02-12T10:14:01;100908.41;;;7.68;81.59
30618;BME280;17384;51.214;9.202;2023-02-12T10:24:45;100901.63;;;7.54;81.78
30618;BME280;17384;51.214;9.202;2023-02-12T10:27:16;100906.88;;;7.56;81.76
30618;BME280;17384;51.214;9.202;2023-02-12T10:29:45;100893.47;;;7.73;81.38
30618;BME280;17384;51.214;9.202;2023-02-12T10:32:23;100890.91;;;7.81;81.12
30618;BME280;17384;51.214;9.202;2023-02-12T10:34:50;100897.44;;;7.79;80.51
30618;BME280;17384;51.214;9.202;2023-02-12T10:39:57;100893.44;;;7.93;80.34
30618;BME280;17384;51.214;9.202;2023-02-12T10:45:00;100896.03;;;7.85;80.55
30618;BME280;17384;51.214;9.202;2023-02-12T10:47:25;100891.19;;;7.88;80.18
30618;BME280;17384;51.214;9.202;2023-02-12T10:49:59;100881.66;;;7.84;80.07
30618;BME280;17384;51.214;9.202;2023-02-12T10:52:44;100891.31;;;7.87;80.09
30618;BME280;17384;51.214;9.202;2023-02-12T10:55:42;100900.13;;;7.89;80.14
30618;BME280;17384;51.214;9.202;2023-02-12T10:58:18;100902.22;;;8.04;79.58
30618;BME280;17384;51.214;9.202;2023-02-12T11:00:44;100904.06;;;8.04;79.85
30618;BME280;17384;51.214;9.202;2023-02-12T11:05:40;100888.19;;;7.81;80.54
30618;BME280;17384;51.214;9.202;2023-02-12T11:08:06;100902.00;;;7.88;80.63
30618;BME280;17384;51.214;9.202;2023-02-12T11:10:38;100894.81;;;7.97;80.32
30618;BME280;17384;51.214;9.202;2023-02-12T11:13:05;100888.63;;;7.87;80.60
30618;BME280;17384;51.214;9.202;2023-02-12T11:15:52;100901.00;;;7.79;80.77
30618;BME280;17384;51.214;9.202;2023-02-12T11:18:24;100886.63;;;7.89;80.34
30618;BME280;17384;51.214;9.202;2023-02-12T11:20:53;100891.91;;;7.80;80.39
30618;BME280;17384;51.214;9.202;2023-02-12T11:23:27;100886.63;;;7.89;80.05
30618;BME280;17384;51.214;9.202;2023-02-12T11:26:03;100874.81;;;7.90;80.09
30618;BME280;17384;51.214;9.202;2023-02-12T11:28:30;100890.56;;;7.94;80.06
30618;BME280;17384;51.214;9.202;2023-02-12T11:31:03;100885.16;;;7.94;79.56
30618;BME280;17384;51.214;9.202;2023-02-12T11:33:41;100883.91;;;7.89;79.64
30618;BME280;17384;51.214;9.202;2023-02-12T11:36:21;100891.94;;;8.08;79.50
30618;BME280;17384;51.214;9.202;2023-02-12T11:42:17;100884.41;;;8.11;79.60
30618;BME280;17384;51.214;9.202;2023-02-12T11:44:52;100884.19;;;8.23;79.28
30618;BME280;17384;51.214;9.202;2023-02-12T11:47:23;100888.97;;;8.11;79.30
30618;BME280;17384;51.214;9.202;2023-02-12T11:52:23;100889.66;;;8.13;79.26
30618;BME280;17384;51.214;9.202;2023-02-12T11:54:55;100882.22;;;7.88;79.20
30618;BME280;17384;51.214;9.202;2023-02-12T11:57:46;100887.47;;;7.89;79.36
30618;BME280;17384;51.214;9.202;2023-02-12T12:02:48;100877.28;;;8.10;79.01
30618;BME280;17384;51.214;9.202;2023-02-12T12:05:19;100867.13;;;8.22;78.60
30618;BME280;17384;51.214;9.202;2023-02-12T12:07:55;100867.03;;;8.14;78.76
30618;BME280;17384;51.214;9.202;2023-02-12T12:13:28;100866.81;;;7.98;78.29
30618;BME280;17384;51.214;9.202;2023-02-12T12:16:07;100871.44;;;7.78;79.40
30618;BME280;17384;51.214;9.202;2023-02-12T12:19:15;100855.50;;;7.85;79.36
30618;BME280;17384;51.214;9.202;2023-02-12T12:24:56;100849.69;;;8.07;78.97
30618;BME280;17384;51.214;9.202;2023-02-12T12:27:50;100860.38;;;8.08;78.50
30618;BME280;17384;51.214;9.202;2023-02-12T12:41:19;100855.63;;;8.20;78.38
30618;BME280;17384;51.214;9.202;2023-02-12T12:46:58;100846.75;;;8.28;78.95
30618;BME280;17384;51.214;9.202;2023-02-12T12:49:41;100834.63;;;8.32;78.90
30618;BME280;17384;51.214;9.202;2023-02-12T13:03:17;100846.44;;;8.03;79.27
30618;BME280;17384;51.214;9.202;2023-02-12T13:08:27;100839.84;;;8.15;79.24
30618;BME280;17384;51.214;9.202;2023-02-12T13:11:03;100840.88;;;8.05;79.64
30618;BME280;17384;51.214;9.202;2023-02-12T13:13:39;100840.22;;;7.93;80.09
30618;BME280;17384;51.214;9.202;2023-02-12T13:26:25;100831.63;;;7.70;80.91
30618;BME280;17384;51.214;9.202;2023-02-12T13:29:07;100827.88;;;7.91;80.36
30618;BME280;17384;51.214;9.202;2023-02-12T13:31:46;100829.06;;;8.06;80.08
30618;BME280;17384;51.214;9.202;2023-02-12T13:34:15;100831.34;;;8.10;79.96
30618;BME280;17384;51.214;9.202;2023-02-12T13:36:42;100837.47;;;8.03;79.61
30618;BME280;17384;51.214;9.202;2023-02-12T13:39:38;100845.94;;;7.90;79.67
30618;BME280;17384;51.214;9.202;2023-02-12T13:42:42;100836.19;;;8.07;79.39
30618;BME280;17384;51.214;9.202;2023-02-12T13:48:02;100836.47;;;8.04;79.80
30618;BME280;17384;51.214;9.202;2023-02-12T13:50:43;100835.63;;;8.03;79.33
30618;BME280;17384;51.214;9.202;2023-02-12T13:53:28;100835.22;;;7.61;79.97
30618;BME280;17384;51.214;9.202;2023-02-12T13:56:24;100837.94;;;7.61;80.09
30618;BME280;17384;51.214;9.202;2023-02-12T13:58:53;100832.69;;;7.50;80.91
30618;BME280;17384;51.214;9.202;2023-02-12T14:01:42;100835.22;;;7.61;80.45
30618;BME280;17384;51.214;9.202;2023-02-12T14:07:01;100828.06;;;7.79;80.01
30618;BME280;17384;51.214;9.202;2023-02-12T14:14:52;100820.81;;;7.70;80.21
30618;BME280;17384;51.214;9.202;2023-02-12T14:20:25;100817.31;;;7.60;79.70
30618;BME280;17384;51.214;9.202;2023-02-12T14:28:06;100825.28;;;7.62;79.85
30618;BME280;17384;51.214;9.202;2023-02-12T14:30:38;100825.44;;;7.51;79.87
30618;BME280;17384;51.214;9.202;2023-02-12T14:38:01;100819.53;;;7.74;79.37
30618;BME280;17384;51.214;9.202;2023-02-12T14:43:00;100820.78;;;7.90;79.65
30618;BME280;17384;51.214;9.202;2023-02-12T14:45:29;100817.09;;;7.81;79.52
30618;BME280;17384;51.214;9.202;2023-02-12T14:47:55;100831.88;;;7.87;78.88
30618;BME280;17384;51.214;9.202;2023-02-12T14:50:29;100827.50;;;7.66;79.36
30618;BME280;17384;51.214;9.202;2023-02-12T14:52:59;100826.38;;;7.69;79.13
30618;BME280;17384;51.214;9.202;2023-02-12T14:55:31;100833.09;;;7.65;79.33
30618;BME280;17384;51.214;9.202;2023-02-12T14:58:15;100821.88;;;7.60;79.53
30618;BME280;17384;51.214;9.202;2023-02-12T15:00:45;100835.09;;;7.53;79.90
30618;BME280;17384;51.214;9.202;2023-02-12T15:06:15;100831.97;;;7.58;79.38
30618;BME280;17384;51.214;9.202;2023-02-12T15:08:58;100830.06;;;7.68;78.78
30618;BME280;17384;51.214;9.202;2023-02-12T15:11:37;100831.28;;;7.46;79.49
30618;BME280;17384;51.214;9.202;2023-02-12T15:14:20;100825.34;;;7.33;80.35
30618;BME280;17384;51.214;9.202;2023-02-12T15:16:54;100826.78;;;7.37;80.49
30618;BME280;17384;51.214;9.202;2023-02-12T15:19:43;100833.25;;;7.44;79.60
30618;BME280;17384;51.214;9.202;2023-02-12T15:22:41;100833.25;;;7.44;79.67
30618;BME280;17384;51.214;9.202;2023-02-12T15:25:31;100820.91;;;7.51;79.87
30618;BME280;17384;51.214;9.202;2023-02-12T15:28:05;100818.78;;;7.45;79.65
30618;BME280;17384;51.214;9.202;2023-02-12T15:30:41;100833.97;;;7.56;79.59
30618;BME280;17384;51.214;9.202;2023-02-12T15:33:07;100823.59;;;7.51;79.69
30618;BME280;17384;51.214;9.202;2023-02-12T15:35:35;100818.91;;;7.53;79.78
30618;BME280;17384;51.214;9.202;2023-02-12T15:38:03;100818.19;;;7.51;80.06
30618;BME280;17384;51.214;9.202;2023-02-12T15:40:32;100806.88;;;7.38;80.00
30618;BME280;17384;51.214;9.202;2023-02-12T15:43:03;100822.03;;;7.39;80.39
30618;BME280;17384;51.214;9.202;2023-02-12T15:45:33;100824.88;;;7.47;80.12
30618;BME280;17384;51.214;9.202;2023-02-12T15:48:10;100834.25;;;7.43;80.22
30618;BME280;17384;51.214;9.202;2023-02-12T15:50:46;100819.25;;;7.31;80.49
30618;BME280;17384;51.214;9.202;2023-02-12T15:53:15;100812.56;;;7.25;80.70